Beulah Beach, Ohio
Current Conditions -  °F | °C
As of 7:08 AM on Friday 28 Nov 2014 (Local Time) from KLPR Reporting Station
Broken Clouds Broken Clouds  
Wind Chill:   Ceiling: 2900
Heat Index: 14°   Visibility: 10mi
Dew Point:   Wind: 9mph
Humidity: 80%   Direction: 250°WSW
Pressure: 30.35"   Gusts: NA
Location:  41.3884°N, 82.3643°W
Report Text: KLPR 281208Z AUTO 25008KT 10SM BKN029 BKN039 M10/M13 A3035 RMK AO2 T11001128 TSNO
Loading
Personal Weather Stations






























Interactive Weather Map New forecast layout! Learn more

10-Day Weather Forecast

Advertisements
Track Severe Weather on mobile